Latest Weather Observations for Hindmarsh Island

IDS60901

Issued at 1:51 pm CDT Tuesday 27 January 2015 (issued every 10 minutes, with the page automatically refreshed every 10 minutes)

About weather observations | Map of Adelaide area stations | Latest observations for Adelaide area | Other Formats
Station Details ID: 023894 Name: HINDMARSH ISLAND AWS Lat: -35.52 Lon: 138.82 Height: 11.0 m
Data from the previous 72 hours. | See also: Recent months at Hindmarsh Island
Date/Time
CDT
Tmp

°C
App
Tmp
°C
Dew
Point
°C
Rel
Hum
%
Delta-T

°C
Wind Press
QNH
hPa
Press
MSL
hPa
Rain
since
9 am
mm
Dir
 
Spd
km/h
Gust
km/h
Spd
kts
Gust
kts
27/01:30pm 19.6 13.4 8.0 47 6.0 SSE 30 39 16 21 1018.1 - 0.0
27/01:00pm 18.0 11.9 8.3 53 5.0 SSE 30 39 16 21 1018.4 - 0.0
27/12:30pm 18.6 13.0 8.8 53 5.1 SE 28 33 15 18 1018.6 - 0.0
27/12:00pm 17.8 12.2 8.6 55 4.7 SE 28 35 15 19 1018.7 1018.6 0.0
27/11:30am 19.4 13.8 10.1 55 5.0 SE 30 41 16 22 1018.7 - 0.0
27/11:00am 17.5 11.1 8.6 56 4.6 SE 32 39 17 21 1018.8 - 0.0
27/10:30am 17.1 11.7 9.5 61 4.0 SE 28 35 15 19 1018.9 - 0.0
27/10:00am 16.5 11.9 8.2 58 4.2 ESE 22 30 12 16 1019.1 - 0.0
27/09:30am 15.8 10.9 6.8 55 4.4 E 22 28 12 15 1019.2 - 0.0
27/09:00am 15.2 10.6 6.7 57 4.1 ESE 20 26 11 14 1019.2 1019.1 0.0
27/08:30am 14.8 9.5 6.6 58 4.0 E 24 32 13 17 1019.1 - 0.0
27/08:00am 14.5 8.8 6.6 59 3.8 E 26 30 14 16 1019.0 - 0.0
27/07:30am 14.2 9.6 6.6 60 3.7 E 20 26 11 14 1018.8 - 0.0
27/07:00am 14.0 9.6 6.6 61 3.6 E 19 24 10 13 1018.6 - 0.0
27/06:30am 14.0 8.3 6.6 61 3.6 E 26 33 14 18 1018.2 - 0.0
27/06:00am 14.1 8.8 6.7 61 3.6 E 24 32 13 17 1017.8 1017.7 0.0
27/05:30am 14.1 8.4 6.9 62 3.5 E 26 32 14 17 1017.6 - 0.0
27/05:00am 14.2 9.1 7.5 64 3.3 E 24 32 13 17 1017.4 - 0.0
27/04:30am 14.4 9.7 7.7 64 3.3 E 22 32 12 17 1017.4 - 0.0
27/04:00am 14.5 9.9 8.0 65 3.2 E 22 28 12 15 1017.3 - 0.0
27/03:30am 14.7 10.7 8.4 66 3.2 E 19 24 10 13 1017.4 - 0.0
27/03:00am 16.4 11.4 9.6 64 3.5 SE 26 32 14 17 1017.3 1017.2 0.0
27/02:30am 16.5 11.4 9.2 62 3.8 SSE 26 32 14 17 1017.4 - 0.0
27/02:00am 16.5 11.5 9.4 63 3.7 SSE 26 32 14 17 1017.7 - 0.0
27/01:30am 16.4 10.9 9.3 63 3.7 SSE 28 35 15 19 1017.9 - 0.0
27/01:00am 16.3 10.7 8.8 61 3.8 SSE 28 37 15 20 1018.1 - 0.0
27/12:30am 16.3 10.8 9.3 63 3.6 SSE 28 33 15 18 1018.4 - 0.0
27/12:00am 16.4 10.6 9.6 64 3.5 SSE 30 35 16 19 1018.3 1018.2 0.0
 
Date/Time
CDT
Tmp

°C
App
Tmp
°C
Dew
Point
°C
Rel
Hum
%
Delta-T

°C
Wind Press
QNH
hPa
Press
MSL
hPa
Rain
since
9 am
mm
Dir
 
Spd
km/h
Gust
km/h
Spd
kts
Gust
kts
26/11:30pm 16.2 10.3 8.9 62 3.7 SSE 30 37 16 20 1018.4 - 0.0
26/11:00pm 16.1 9.6 8.3 60 4.0 SSE 32 41 17 22 1018.4 - 0.0
26/10:30pm 16.1 9.6 8.3 60 4.0 SSE 32 37 17 20 1018.5 - 0.0
26/10:00pm 16.2 9.6 8.4 60 4.0 S 33 41 18 22 1018.4 - 0.0
26/09:30pm 16.3 9.9 9.3 63 3.6 S 33 41 18 22 1018.3 - 0.0
26/09:00pm 16.3 9.6 8.0 58 4.2 S 33 43 18 23 1018.1 1018.0 0.0
26/08:30pm 16.4 9.9 8.1 58 4.2 S 32 39 17 21 1018.2 - 0.0
26/08:00pm 16.7 10.1 7.6 55 4.6 S 32 39 17 21 1018.0 - 0.0
26/07:30pm 17.0 10.5 8.2 56 4.5 S 32 39 17 21 1017.8 - 0.0
26/07:00pm 17.5 11.7 9.4 59 4.2 S 30 37 16 20 1017.6 - 0.0
26/06:30pm 17.9 12.0 7.6 51 5.2 S 28 35 15 19 1017.4 - 0.0
26/06:00pm 18.3 12.2 8.3 52 5.1 S 30 39 16 21 1017.4 1017.3 0.0
26/05:30pm 17.8 12.2 8.6 55 4.7 S 28 35 15 19 1017.4 - 0.0
26/05:00pm 19.3 14.0 8.6 50 5.6 S 26 33 14 18 1017.6 - 0.0
26/04:30pm 19.2 13.0 7.9 48 5.8 S 30 37 16 20 1017.6 - 0.0
26/04:00pm 19.2 13.2 7.0 45 6.2 S 28 37 15 20 1017.8 - 0.0
26/03:30pm 19.9 14.0 7.6 45 6.3 S 28 35 15 19 1017.8 - 0.0
26/03:00pm 19.6 13.4 6.0 41 6.7 S 28 35 15 19 1017.9 1017.8 0.0
26/02:30pm 19.5 13.6 5.6 40 6.8 S 26 33 14 18 1017.9 - 0.0
26/02:00pm 20.1 14.3 8.1 46 6.2 S 28 35 15 19 1018.1 - 0.0
26/01:30pm 19.4 13.8 7.2 45 6.2 SSE 26 33 14 18 1018.0 - 0.0
26/01:00pm 19.9 15.1 8.9 49 5.8 S 24 30 13 16 1018.2 - 0.0
26/12:30pm 18.7 13.9 7.5 48 5.7 S 22 28 12 15 1018.2 - 0.0
26/12:00pm 18.7 14.7 8.9 53 5.1 SSE 20 28 11 15 1018.4 1018.3 0.0
26/11:30am 18.1 14.6 8.9 55 4.8 SE 17 26 9 14 1018.5 - 0.0
26/11:00am 17.5 14.0 7.3 51 5.1 SE 15 26 8 14 1018.7 - 0.0
26/10:30am 17.4 13.5 9.3 59 4.2 ESE 20 26 11 14 1018.6 - 0.0
26/10:00am 16.9 13.0 8.6 58 4.3 E 19 26 10 14 1018.8 - 0.0
26/09:30am 16.7 10.7 7.1 53 4.8 SSE 28 33 15 18 1018.6 - 0.0
26/09:00am 17.3 13.3 8.2 55 4.6 S 19 22 10 12 1018.6 1018.5 0.0
26/08:30am 16.8 12.6 8.2 57 4.4 S 20 24 11 13 1018.4 - 0.0
26/08:00am 16.2 11.7 6.9 54 4.6 S 20 28 11 15 1018.2 - 0.0
26/07:30am 14.9 13.3 8.6 66 3.2 NW 7 20 4 11 1017.8 - 0.0
26/07:00am 14.7 13.3 9.5 71 2.7 NW 7 11 4 6 1017.5 - 0.0
26/06:30am 14.9 13.4 9.1 68 3.0 NE 7 13 4 7 1017.4 - 0.0
26/06:00am 15.5 11.9 8.3 62 3.6 SE 17 26 9 14 1016.9 1016.8 0.0
26/05:30am 15.4 11.5 8.6 64 3.5 SE 19 22 10 12 1016.6 - 0.0
26/05:00am 15.3 11.8 8.8 65 3.3 SE 17 26 9 14 1016.4 - 0.0
26/04:30am 15.4 10.9 8.4 63 3.5 SSE 22 28 12 15 1016.2 - 0.0
26/04:00am 15.3 11.4 9.4 68 3.0 SSE 20 28 11 15 1016.0 - 0.0
26/03:30am 15.2 9.2 10.0 71 2.7 SSE 32 41 17 22 1015.6 - 0.0
26/03:00am 15.9 10.8 9.3 65 3.4 S 26 30 14 16 1015.5 1015.4 0.0
26/02:30am 15.7 11.6 8.7 63 3.6 S 20 24 11 13 1015.6 - 0.0
26/02:00am 16.0 10.7 9.7 66 3.3 S 28 33 15 18 1015.8 - 0.0
26/01:30am 16.1 11.0 9.1 63 3.6 S 26 32 14 17 1015.9 - 0.0
26/01:00am 16.3 10.8 9.3 63 3.6 S 28 35 15 19 1016.0 - 0.0
26/12:30am 16.3 10.3 8.5 60 4.0 S 30 39 16 21 1016.1 - 0.0
26/12:00am 16.4 11.3 9.1 62 3.8 S 26 32 14 17 1016.2 1016.1 0.0
 
Date/Time
CDT
Tmp

°C
App
Tmp
°C
Dew
Point
°C
Rel
Hum
%
Delta-T

°C
Wind Press
QNH
hPa
Press
MSL
hPa
Rain
since
9 am
mm
Dir
 
Spd
km/h
Gust
km/h
Spd
kts
Gust
kts
25/11:30pm 16.4 10.7 8.4 59 4.1 S 28 33 15 18 1016.1 - 0.0
25/11:00pm 16.1 10.3 7.8 58 4.2 S 28 33 15 18 1016.1 - 0.0
25/10:30pm 16.4 9.9 8.1 58 4.2 S 32 37 17 20 1016.0 - 0.0
25/10:00pm 16.3 9.6 8.3 59 4.1 SSW 33 43 18 23 1015.8 - 0.0
25/09:30pm 16.5 9.6 9.0 61 3.9 S 35 43 19 23 1015.5 - 0.0
25/09:00pm 16.4 9.7 8.1 58 4.2 SSW 33 39 18 21 1015.3 1015.2 0.0
25/08:30pm 16.6 9.6 8.3 58 4.2 SSW 35 43 19 23 1015.0 - 0.0
25/08:00pm 17.2 11.1 9.6 61 4.0 SSW 32 41 17 22 1015.0 - 0.0
25/07:30pm 17.3 11.1 9.2 59 4.2 S 32 37 17 20 1014.9 - 0.0
25/07:00pm 17.6 10.8 9.2 58 4.4 S 35 43 19 23 1014.4 - 0.0
25/06:30pm 17.8 11.1 8.1 53 5.0 SSW 33 41 18 22 1014.2 - 0.0
25/06:00pm 18.9 11.3 7.7 48 5.7 SSW 37 46 20 25 1014.3 1014.2 0.0
25/05:30pm 19.1 11.5 7.5 47 5.9 SSW 37 46 20 25 1014.1 - 0.0
25/05:00pm 19.4 12.1 10.1 55 5.0 SSW 39 48 21 26 1014.0 - 0.0
25/04:30pm 19.7 11.5 8.4 48 5.9 SSW 41 50 22 27 1014.2 - 0.0
25/04:00pm 19.6 11.5 8.6 49 5.7 SSW 41 50 22 27 1014.2 - 0.0
25/03:30pm 20.0 12.1 7.7 45 6.3 SW 39 48 21 26 1014.0 - 0.0
25/03:00pm 19.6 11.3 6.0 41 6.7 SW 39 48 21 26 1014.1 1014.0 0.0
25/02:30pm 19.8 11.9 6.2 41 6.8 SW 37 48 20 26 1014.1 - 0.0
25/02:00pm 19.5 11.8 7.3 45 6.2 SSW 37 46 20 25 1014.0 - 0.0
25/01:30pm 19.5 11.5 9.1 51 5.5 SSW 41 50 22 27 1014.0 - 0.0
25/01:00pm 18.9 11.9 8.6 51 5.3 SW 35 44 19 24 1014.2 - 0.0
25/12:30pm 19.1 11.9 7.5 47 5.9 SW 35 44 19 24 1014.4 - 0.0
25/12:00pm 19.9 13.0 6.3 41 6.8 SW 32 39 17 21 1014.3 1014.2 0.0
25/11:30am 19.7 12.5 6.1 41 6.8 SW 33 41 18 22 1014.3 - 0.0
25/11:00am 18.0 11.1 6.5 47 5.7 SW 32 43 17 23 1014.0 - 0.0
25/10:30am 16.8 12.0 9.0 60 4.0 SW 24 33 13 18 1013.6 - 0.0
25/10:00am 16.9 11.2 8.3 57 4.4 WSW 28 39 15 21 1013.6 - 0.0
25/09:30am 17.2 11.3 7.3 52 5.0 WSW 28 37 15 20 1013.3 - 0.0
25/09:02am 17.7 11.8 5.9 46 5.8 SW 26 - 14 - - 1012.7 0.0
25/09:00am 17.5 11.6 5.8 46 5.7 SW 26 33 14 18 1012.8 1012.7 0.0
25/08:30am 16.9 10.1 4.9 45 5.7 SW 30 39 16 21 1012.6 - 0.0
25/08:00am 16.4 9.2 5.1 47 5.4 SW 32 41 17 22 1012.2 - 0.0
25/07:30am 16.9 10.5 7.0 52 4.9 SW 30 43 16 23 1011.6 - 0.0
25/07:00am 16.3 10.0 7.5 56 4.4 SSW 30 37 16 20 1011.2 - 0.0
25/06:30am 16.3 10.6 8.3 59 4.1 SW 28 33 15 18 1010.8 - 0.0
25/06:00am 16.1 10.2 7.3 56 4.4 SW 28 41 15 22 1010.2 1010.1 0.0
25/05:30am 16.3 9.3 7.0 54 4.6 SSW 33 43 18 23 1009.9 - 0.0
25/05:00am 16.2 10.1 6.6 53 4.7 SW 28 39 15 21 1009.5 - 0.0
25/04:30am 16.1 8.9 5.1 48 5.2 SW 32 39 17 21 1009.3 - 0.0
25/04:00am 16.2 8.8 6.9 54 4.6 SW 35 46 19 25 1009.4 - 0.0
25/03:30am 16.4 9.1 8.9 61 3.9 SSW 37 50 20 27 1009.2 - 0.0
25/03:00am 16.5 9.4 9.7 64 3.6 SW 37 48 20 26 1009.4 1009.3 0.0
25/02:30am 16.4 9.5 8.9 61 3.9 SW 35 46 19 25 1009.3 - 0.0
25/02:00am 17.0 9.1 10.8 67 3.3 SW 43 57 23 31 1009.1 - 0.0
25/01:30am 17.0 9.5 9.4 61 4.0 SW 39 50 21 27 1009.2 - 0.0
25/01:00am 17.2 11.6 10.3 64 3.7 WSW 30 48 16 26 1009.3 - 0.0
25/12:59am 17.1 11.5 10.2 64 3.7 WSW 30 48 16 26 1009.3 - 0.0
25/12:30am 17.2 10.2 10.1 63 3.8 WSW 37 48 20 26 1009.1 - 0.0
25/12:16am 17.2 9.7 11.0 67 3.3 SW 41 59 22 32 1009.0 - 0.0
25/12:00am 17.4 10.8 11.2 67 3.4 WSW 37 48 20 26 1009.0 1008.9 0.0
 
Date/Time
CDT
Tmp

°C
App
Tmp
°C
Dew
Point
°C
Rel
Hum
%
Delta-T

°C
Wind Press
QNH
hPa
Press
MSL
hPa
Rain
since
9 am
mm
Dir
 
Spd
km/h
Gust
km/h
Spd
kts
Gust
kts
24/11:30pm 17.4 10.2 11.9 70 3.0 SW 41 50 22 27 1008.8 - 0.0
24/11:06pm 17.7 12.0 13.0 74 2.6 WSW 35 54 19 29 1008.7 - 0.0
24/11:00pm 17.9 13.0 13.6 76 2.4 WSW 32 43 17 23 1008.8 - 0.0
24/10:32pm 17.6 11.4 12.7 73 2.7 WSW 37 56 20 30 1008.5 - 0.0
24/10:30pm 17.7 11.2 13.0 74 2.6 WSW 39 56 21 30 1008.6 - 0.0
24/10:21pm 18.6 12.6 13.2 71 3.1 SW 37 50 20 27 1008.4 - 0.0
24/10:00pm 18.4 13.8 12.2 67 3.4 W 28 41 15 22 1008.2 - 0.0
24/09:53pm 18.5 13.0 12.0 66 3.6 W 32 50 17 27 1008.2 - 0.0
24/09:30pm 18.9 13.8 11.9 64 3.9 WSW 30 46 16 25 1007.9 - 0.0
24/09:00pm 19.8 14.0 12.8 64 4.0 W 35 46 19 25 1007.4 1007.3 0.0
24/08:30pm 20.0 14.8 11.7 59 4.6 W 30 39 16 21 1006.9 - 0.0
24/08:00pm 20.7 15.7 12.1 58 4.8 W 30 43 16 23 1006.5 - 0.0
24/07:30pm 21.2 14.9 11.2 53 5.5 WNW 35 44 19 24 1006.3 - 0.0
24/07:20pm 21.6 16.2 12.2 55 5.3 W 32 50 17 27 1006.2 - 0.0
24/07:00pm 21.8 15.8 12.1 54 5.5 W 35 46 19 25 1006.1 - 0.0
24/06:30pm 22.5 16.0 11.6 50 6.1 W 37 48 20 26 1005.8 - 0.0
24/06:00pm 22.8 15.3 10.9 47 6.6 W 41 63 22 34 1005.8 1005.7 0.0
24/05:39pm 23.1 15.9 10.5 45 6.9 W 39 59 21 32 1005.6 - 0.0
24/05:30pm 23.2 16.0 10.6 45 7.0 W 39 54 21 29 1005.6 - 0.0
24/05:00pm 23.4 16.8 10.1 43 7.3 W 35 54 19 29 1005.8 - 0.0
24/04:51pm 23.8 17.0 9.4 40 7.8 W 35 54 19 29 1005.7 - 0.0
24/04:30pm 24.1 18.4 9.7 40 7.9 W 30 44 16 24 1005.8 - 0.0
24/04:19pm 24.3 18.7 10.2 41 7.8 W 30 48 16 26 1005.8 - 0.0
24/04:00pm 23.9 17.2 9.5 40 7.8 W 35 48 19 26 1005.8 - 0.0
24/03:30pm 24.7 18.2 9.0 37 8.5 W 33 48 18 26 1006.2 - 0.0
24/03:00pm 23.8 17.4 8.6 38 8.1 W 32 48 17 26 1006.5 1006.4 0.0
24/02:47pm 23.8 18.0 9.4 40 7.8 W 30 48 16 26 1006.5 - 0.0
24/02:30pm 24.2 18.3 9.0 38 8.2 W 30 41 16 22 1006.6 - 0.0
24/02:00pm 23.9 18.6 9.9 41 7.7 W 28 41 15 22 1006.7 - 0.0

Latest Capital City Observations: Canberra | Sydney | Melbourne | Brisbane | Adelaide | Perth | Hobart | Darwin

Other Formats:

Comma delimited format used in spreadsheet applications
http://www.bom.gov.au/fwo/IDS60901/IDS60901.94677.axf

JavaScript Object Notation format (JSON) in row-major order
http://www.bom.gov.au/fwo/IDS60901/IDS60901.94677.json